PWSweather.com
Personal Weather Stations
Station Observations
SHAHALMS1
Eftra, Falkenberg, HA

EftraFalkenberg, HA

Lat: 56.85, Lon: 12.65

Elevation: 140

Station Type:

http://hem.passagen.se/risarp101

High Low Average
Temperature 38.7°F3.7°C 33.8°F1.0°C 36.1°F2.3°C
Dew Point 34.5°F1.4°C 24.6°F-4.1°C 29.2°F-1.6°C
Winds 24.2 mph 38.9 kmh Calm Calm 10.0 mph E16.1 kmh E
Wind Gusts 36.5 mph58.7 kmh -- 16.0 mph25.7 kmh
Humidity 88% 63% 76%
Pressure 29.68 in1005.1 mb 28.94 in980.0 mb -
Precipitation 0.43 in10.9 mm - -
Hour Temp Dew Point Humidity Winds Wind Gusts Pressure Precip Precip Rate Daily Precip Total
12:00 AM 38.7°F3.7°C 34.5°F1.4°C 85% 7.5 mph ENE12.1 kmh ENE 15.7 mph25.3 kmh 28.97 in981.0 mb 0.00 in0.0 mm 0.00 in0.0 mm 0.00 in0.0 mm
12:15 AM 38.7°F3.7°C 34.5°F1.4°C 85% 7.4 mph ENE11.9 kmh ENE 16.8 mph27.0 kmh 28.97 in981.0 mb 0.00 in0.0 mm 0.00 in0.0 mm 0.00 in0.0 mm
12:30 AM 38.7°F3.7°C 34.5°F1.4°C 85% 9.4 mph E15.1 kmh E 20.0 mph32.2 kmh 28.97 in981.0 mb 0.05 in1.3 mm 0.20 in5.1 mm 0.05 in1.3 mm
12:45 AM 38.5°F3.6°C 34.4°F1.3°C 85% 6.1 mph ENE9.8 kmh ENE 15.4 mph24.8 kmh 28.94 in980.0 mb 0.05 in1.3 mm 0.00 in0.0 mm 0.05 in1.3 mm
01:00 AM 38.3°F3.5°C 34.2°F1.2°C 85% 6.8 mph ENE10.9 kmh ENE 15.0 mph24.1 kmh 28.94 in980.0 mb 0.05 in1.3 mm 0.00 in0.0 mm 0.05 in1.3 mm
01:15 AM 37.9°F3.3°C 33.8°F1.0°C 85% 7.8 mph NE12.6 kmh NE 20.0 mph32.2 kmh 28.97 in981.0 mb 0.09 in2.3 mm 0.16 in4.1 mm 0.09 in2.3 mm
01:30 AM 37.8°F3.2°C 33.7°F0.9°C 85% 7.9 mph ENE12.7 kmh ENE 16.5 mph26.6 kmh 28.97 in981.0 mb 0.05 in1.3 mm 0.00 in0.0 mm 0.09 in2.3 mm
01:45 AM 37.4°F3.0°C 33.3°F0.7°C 85% 8.8 mph ENE14.2 kmh ENE 27.6 mph44.4 kmh 28.97 in981.0 mb 0.05 in1.3 mm 0.00 in0.0 mm 0.09 in2.3 mm
02:00 AM 37.0°F2.8°C 32.9°F0.5°C 85% 8.8 mph ENE14.2 kmh ENE 19.7 mph31.7 kmh 28.97 in981.0 mb 0.09 in2.3 mm 0.05 in1.3 mm 0.14 in3.6 mm
02:15 AM 36.1°F2.3°C 31.8°F-0.1°C 84% 7.6 mph NE12.2 kmh NE 13.6 mph21.9 kmh 28.97 in981.0 mb 0.09 in2.3 mm 0.00 in0.0 mm 0.18 in4.6 mm
02:30 AM 35.2°F1.8°C 30.9°F-0.6°C 84% 8.7 mph NE14.0 kmh NE 17.5 mph28.2 kmh 28.97 in981.0 mb 0.19 in4.8 mm 0.40 in10.2 mm 0.28 in7.1 mm
02:45 AM 34.9°F1.6°C 30.8°F-0.7°C 85% 7.9 mph NE12.7 kmh NE 13.6 mph21.9 kmh 28.97 in981.0 mb 0.19 in4.8 mm 0.00 in0.0 mm 0.28 in7.1 mm
03:00 AM 34.9°F1.6°C 31.1°F-0.5°C 86% 9.1 mph NE14.6 kmh NE 20.8 mph33.5 kmh 28.97 in981.0 mb 0.14 in3.6 mm 0.00 in0.0 mm 0.28 in7.1 mm
03:15 AM 34.7°F1.5°C 30.9°F-0.6°C 86% 8.5 mph NE13.7 kmh NE 14.0 mph22.5 kmh 28.97 in981.0 mb 0.15 in3.8 mm 0.04 in1.0 mm 0.33 in8.4 mm
03:30 AM 34.2°F1.2°C 30.4°F-0.9°C 86% 7.9 mph NNE12.7 kmh NNE 9.7 mph15.6 kmh 28.97 in981.0 mb 0.06 in1.5 mm 0.00 in0.0 mm 0.33 in8.4 mm
03:45 AM 34.2°F1.2°C 30.4°F-0.9°C 86% 7.9 mph NNE12.7 kmh NNE 9.7 mph15.6 kmh 28.94 in980.0 mb 0.06 in1.5 mm 0.00 in0.0 mm 0.33 in8.4 mm
04:00 AM 34.0°F1.1°C 30.5°F-0.8°C 87% 7.9 mph NNE12.7 kmh NNE 9.7 mph15.6 kmh 28.97 in981.0 mb 0.06 in1.5 mm 0.00 in0.0 mm 0.33 in8.4 mm
04:15 AM 34.0°F1.1°C 30.5°F-0.8°C 87% 7.9 mph NNE12.7 kmh NNE 9.7 mph15.6 kmh 28.97 in981.0 mb 0.00 in0.0 mm 0.00 in0.0 mm 0.33 in8.4 mm
04:30 AM 34.0°F1.1°C 30.8°F-0.7°C 88% 7.9 mph NNE12.7 kmh NNE 9.7 mph15.6 kmh 28.97 in981.0 mb 0.00 in0.0 mm 0.00 in0.0 mm 0.33 in8.4 mm
04:45 AM 34.0°F1.1°C 30.8°F-0.7°C 88% 7.9 mph NNE12.7 kmh NNE 9.7 mph15.6 kmh 29.00 in982.1 mb 0.00 in0.0 mm 0.00 in0.0 mm 0.33 in8.4 mm
05:00 AM 33.8°F1.0°C 30.6°F-0.8°C 88% 7.6 mph NNE12.2 kmh NNE 9.3 mph15.0 kmh 29.00 in982.1 mb 0.00 in0.0 mm 0.00 in0.0 mm 0.33 in8.4 mm
05:15 AM 34.0°F1.1°C 30.8°F-0.7°C 88% 7.6 mph NNE12.2 kmh NNE 9.3 mph15.0 kmh 29.00 in982.1 mb 0.00 in0.0 mm 0.00 in0.0 mm 0.33 in8.4 mm
05:30 AM 34.2°F1.2°C 31.0°F-0.6°C 88% 7.6 mph NNE12.2 kmh NNE 9.3 mph15.0 kmh 29.03 in983.1 mb 0.05 in1.3 mm 0.20 in5.1 mm 0.38 in9.7 mm
05:45 AM 34.5°F1.4°C 31.3°F-0.4°C 88% 7.6 mph NNE12.2 kmh NNE 9.3 mph15.0 kmh 29.03 in983.1 mb 0.05 in1.3 mm 0.00 in0.0 mm 0.38 in9.7 mm
06:00 AM 34.7°F1.5°C 31.5°F-0.3°C 88% 3.9 mph NE6.3 kmh NE 13.6 mph21.9 kmh 29.06 in984.1 mb 0.05 in1.3 mm 0.00 in0.0 mm 0.38 in9.7 mm
06:15 AM 34.9°F1.6°C 31.4°F-0.3°C 87% 10.1 mph NNE16.3 kmh NNE 16.8 mph27.0 kmh 29.03 in983.1 mb 0.05 in1.3 mm 0.00 in0.0 mm 0.38 in9.7 mm
06:30 AM 34.9°F1.6°C 31.1°F-0.5°C 86% 10.8 mph NNE17.4 kmh NNE 19.7 mph31.7 kmh 29.03 in983.1 mb 0.00 in0.0 mm 0.00 in0.0 mm 0.38 in9.7 mm
06:45 AM 35.2°F1.8°C 30.9°F-0.6°C 84% 11.9 mph NNE19.2 kmh NNE 27.6 mph44.4 kmh 29.06 in984.1 mb 0.05 in1.3 mm 0.20 in5.1 mm 0.43 in10.9 mm
07:00 AM 35.4°F1.9°C 30.8°F-0.7°C 83% 10.0 mph NNE16.1 kmh NNE 20.4 mph32.8 kmh 29.09 in985.1 mb 0.05 in1.3 mm 0.00 in0.0 mm 0.43 in10.9 mm
07:15 AM 35.4°F1.9°C 30.5°F-0.8°C 82% 11.6 mph N18.7 kmh N 20.8 mph33.5 kmh 29.06 in984.1 mb 0.05 in1.3 mm 0.00 in0.0 mm 0.43 in10.9 mm
07:30 AM 35.6°F2.0°C 30.3°F-0.9°C 81% 12.9 mph N20.8 kmh N 33.3 mph53.6 kmh 29.09 in985.1 mb 0.05 in1.3 mm 0.00 in0.0 mm 0.43 in10.9 mm
07:45 AM 35.6°F2.0°C 30.0°F-1.1°C 80% 11.0 mph N17.7 kmh N 23.6 mph38.0 kmh 29.09 in985.1 mb 0.00 in0.0 mm 0.00 in0.0 mm 0.43 in10.9 mm
08:00 AM 35.8°F2.1°C 29.9°F-1.2°C 79% 13.6 mph N21.9 kmh N 36.5 mph58.7 kmh 29.12 in986.1 mb 0.00 in0.0 mm 0.00 in0.0 mm 0.43 in10.9 mm
08:15 AM 35.8°F2.1°C 29.9°F-1.2°C 79% 11.0 mph N17.7 kmh N 17.2 mph27.7 kmh 29.15 in987.1 mb 0.00 in0.0 mm 0.00 in0.0 mm 0.43 in10.9 mm
08:30 AM 35.8°F2.1°C 29.6°F-1.3°C 78% 10.2 mph N16.4 kmh N 12.5 mph20.1 kmh 29.18 in988.1 mb 0.00 in0.0 mm 0.00 in0.0 mm 0.43 in10.9 mm
08:45 AM 35.8°F2.1°C 29.6°F-1.3°C 78% 16.9 mph N27.2 kmh N 20.8 mph33.5 kmh 29.15 in987.1 mb 0.00 in0.0 mm 0.00 in0.0 mm 0.43 in10.9 mm
09:00 AM 36.0°F2.2°C 29.1°F-1.6°C 76% 13.4 mph NE21.6 kmh NE 16.5 mph26.6 kmh 29.15 in987.1 mb 0.00 in0.0 mm 0.00 in0.0 mm 0.43 in10.9 mm
09:15 AM 36.3°F2.4°C 29.2°F-1.6°C 75% 11.3 mph NE18.2 kmh NE 14.0 mph22.5 kmh 29.18 in988.1 mb 0.00 in0.0 mm 0.00 in0.0 mm 0.43 in10.9 mm
09:30 AM 36.7°F2.6°C 29.2°F-1.6°C 74% 11.3 mph NE18.2 kmh NE 14.0 mph22.5 kmh 29.21 in989.2 mb 0.00 in0.0 mm 0.00 in0.0 mm 0.43 in10.9 mm
09:45 AM 36.9°F2.7°C 29.3°F-1.5°C 74% 12.8 mph N20.6 kmh N 20.4 mph32.8 kmh 29.24 in990.2 mb 0.00 in0.0 mm 0.00 in0.0 mm 0.43 in10.9 mm
10:00 AM 37.2°F2.9°C 29.7°F-1.3°C 74% 11.6 mph N18.7 kmh N 23.3 mph37.5 kmh 29.21 in989.2 mb 0.00 in0.0 mm 0.00 in0.0 mm 0.43 in10.9 mm
10:15 AM 37.6°F3.1°C 30.4°F-0.9°C 75% 15.7 mph N25.3 kmh N 23.6 mph38.0 kmh 29.24 in990.2 mb 0.00 in0.0 mm 0.00 in0.0 mm 0.43 in10.9 mm
10:30 AM 37.8°F3.2°C 30.5°F-0.8°C 75% 11.3 mph N18.2 kmh N 21.1 mph34.0 kmh 29.27 in991.2 mb 0.00 in0.0 mm 0.00 in0.0 mm 0.43 in10.9 mm
10:45 AM 37.6°F3.1°C 30.7°F-0.7°C 76% 12.5 mph N20.1 kmh N 26.1 mph42.0 kmh 29.27 in991.2 mb 0.00 in0.0 mm 0.00 in0.0 mm 0.43 in10.9 mm
11:00 AM 37.4°F3.0°C 30.8°F-0.7°C 77% 12.4 mph N20.0 kmh N 24.3 mph39.1 kmh 29.27 in991.2 mb 0.00 in0.0 mm 0.00 in0.0 mm 0.43 in10.9 mm
11:15 AM 37.4°F3.0°C 30.8°F-0.7°C 77% 13.1 mph N21.1 kmh N 21.1 mph34.0 kmh 29.30 in992.2 mb 0.00 in0.0 mm 0.00 in0.0 mm 0.43 in10.9 mm
11:30 AM 37.2°F2.9°C 30.3°F-0.9°C 76% 16.5 mph N26.6 kmh N 28.3 mph45.5 kmh 29.30 in992.2 mb 0.00 in0.0 mm 0.00 in0.0 mm 0.43 in10.9 mm
11:45 AM 37.2°F2.9°C 30.3°F-0.9°C 76% 13.3 mph N21.4 kmh N 26.1 mph42.0 kmh 29.33 in993.2 mb 0.00 in0.0 mm 0.00 in0.0 mm 0.43 in10.9 mm
12:00 PM 37.2°F2.9°C 30.3°F-0.9°C 76% 10.2 mph N16.4 kmh N 12.5 mph20.1 kmh 29.33 in993.2 mb 0.00 in0.0 mm 0.00 in0.0 mm 0.43 in10.9 mm
12:15 PM 37.4°F3.0°C 30.5°F-0.8°C 76% 10.2 mph N16.4 kmh N 12.5 mph20.1 kmh 29.30 in992.2 mb 0.00 in0.0 mm 0.00 in0.0 mm 0.43 in10.9 mm
12:30 PM 37.4°F3.0°C 30.2°F-1.0°C 75% 24.2 mph N38.9 kmh N 34.0 mph54.7 kmh 29.33 in993.2 mb 0.00 in0.0 mm 0.00 in0.0 mm 0.43 in10.9 mm
12:45 PM 37.2°F2.9°C 30.0°F-1.1°C 75% 18.9 mph N30.4 kmh N 23.3 mph37.5 kmh 29.36 in994.2 mb 0.00 in0.0 mm 0.00 in0.0 mm 0.43 in10.9 mm
01:00 PM 37.0°F2.8°C 29.8°F-1.2°C 75% 18.9 mph N30.4 kmh N 23.3 mph37.5 kmh 29.36 in994.2 mb 0.00 in0.0 mm 0.00 in0.0 mm 0.43 in10.9 mm
01:15 PM 37.6°F3.1°C 30.4°F-0.9°C 75% 18.9 mph N30.4 kmh N 23.3 mph37.5 kmh 29.36 in994.2 mb 0.00 in0.0 mm 0.00 in0.0 mm 0.43 in10.9 mm
01:30 PM 38.1°F3.4°C 29.9°F-1.2°C 72% 18.9 mph N30.4 kmh N 23.3 mph37.5 kmh 29.39 in995.3 mb 0.00 in0.0 mm 0.00 in0.0 mm 0.43 in10.9 mm
01:45 PM 38.1°F3.4°C 29.2°F-1.6°C 70% 17.2 mph N27.7 kmh N 21.1 mph34.0 kmh 29.39 in995.3 mb 0.00 in0.0 mm 0.00 in0.0 mm 0.43 in10.9 mm
02:00 PM 38.5°F3.6°C 29.5°F-1.4°C 70% 12.8 mph N20.6 kmh N 21.1 mph34.0 kmh 29.36 in994.2 mb 0.00 in0.0 mm 0.00 in0.0 mm 0.43 in10.9 mm
02:15 PM 37.9°F3.3°C 28.3°F-2.1°C 68% 12.5 mph N20.1 kmh N 15.7 mph25.3 kmh 29.39 in995.3 mb 0.00 in0.0 mm 0.00 in0.0 mm 0.43 in10.9 mm
02:30 PM 37.4°F3.0°C 27.4°F-2.6°C 67% 13.8 mph N22.2 kmh N 24.7 mph39.8 kmh 29.39 in995.3 mb 0.00 in0.0 mm 0.00 in0.0 mm 0.43 in10.9 mm
02:45 PM 37.6°F3.1°C 28.0°F-2.2°C 68% 10.1 mph N16.3 kmh N 23.3 mph37.5 kmh 29.41 in995.9 mb 0.00 in0.0 mm 0.00 in0.0 mm 0.43 in10.9 mm
03:00 PM 38.3°F3.5°C 28.3°F-2.1°C 67% 13.3 mph N21.4 kmh N 21.8 mph35.1 kmh 29.45 in997.3 mb 0.00 in0.0 mm 0.00 in0.0 mm 0.43 in10.9 mm
03:15 PM 38.1°F3.4°C 27.0°F-2.8°C 64% 12.1 mph N19.5 kmh N 17.2 mph27.7 kmh 29.45 in997.3 mb 0.00 in0.0 mm 0.00 in0.0 mm 0.43 in10.9 mm
03:30 PM 37.9°F3.3°C 26.8°F-2.9°C 64% 13.2 mph N21.2 kmh N 17.2 mph27.7 kmh 29.45 in997.3 mb 0.00 in0.0 mm 0.00 in0.0 mm 0.43 in10.9 mm
03:45 PM 37.9°F3.3°C 26.8°F-2.9°C 64% 8.6 mph N13.8 kmh N 14.7 mph23.7 kmh 29.41 in995.9 mb 0.00 in0.0 mm 0.00 in0.0 mm 0.43 in10.9 mm
04:00 PM 37.6°F3.1°C 26.1°F-3.3°C 63% 12.4 mph N20.0 kmh N 23.3 mph37.5 kmh 29.47 in998.0 mb 0.00 in0.0 mm 0.00 in0.0 mm 0.43 in10.9 mm
04:15 PM 37.2°F2.9°C 26.2°F-3.2°C 64% 13.5 mph N21.7 kmh N 23.3 mph37.5 kmh 29.47 in998.0 mb 0.00 in0.0 mm 0.00 in0.0 mm 0.43 in10.9 mm
04:30 PM 37.2°F2.9°C 26.2°F-3.2°C 64% 7.8 mph N12.6 kmh N 11.8 mph19.0 kmh 29.47 in998.0 mb 0.00 in0.0 mm 0.00 in0.0 mm 0.43 in10.9 mm
04:45 PM 37.0°F2.8°C 26.0°F-3.3°C 64% 9.1 mph N14.6 kmh N 15.7 mph25.3 kmh 29.50 in999.0 mb 0.00 in0.0 mm 0.00 in0.0 mm 0.43 in10.9 mm
05:00 PM 37.0°F2.8°C 26.0°F-3.3°C 64% 7.8 mph N12.6 kmh N 14.0 mph22.5 kmh 29.50 in999.0 mb 0.00 in0.0 mm 0.00 in0.0 mm 0.43 in10.9 mm
05:15 PM 36.9°F2.7°C 25.8°F-3.4°C 64% 7.0 mph N11.3 kmh N 11.5 mph18.5 kmh 29.47 in998.0 mb 0.00 in0.0 mm 0.00 in0.0 mm 0.43 in10.9 mm
05:30 PM 36.7°F2.6°C 25.6°F-3.6°C 64% 9.9 mph N15.9 kmh N 12.2 mph19.6 kmh 29.50 in999.0 mb 0.00 in0.0 mm 0.00 in0.0 mm 0.43 in10.9 mm
05:45 PM 36.7°F2.6°C 25.6°F-3.6°C 64% 9.9 mph N15.9 kmh N 12.2 mph19.6 kmh 29.50 in999.0 mb 0.00 in0.0 mm 0.00 in0.0 mm 0.43 in10.9 mm
06:00 PM 36.5°F2.5°C 25.5°F-3.6°C 64% 9.9 mph N15.9 kmh N 12.2 mph19.6 kmh 29.53 in1000.0 mb 0.00 in0.0 mm 0.00 in0.0 mm 0.43 in10.9 mm
06:15 PM 36.0°F2.2°C 25.3°F-3.7°C 65% 0.7 mph N1.1 kmh N 1.8 mph2.9 kmh 29.56 in1001.0 mb 0.00 in0.0 mm 0.00 in0.0 mm 0.43 in10.9 mm
06:30 PM 35.6°F2.0°C 25.0°F-3.9°C 65% 2.1 mph N3.4 kmh N 6.4 mph10.3 kmh 29.56 in1001.0 mb 0.00 in0.0 mm 0.00 in0.0 mm 0.43 in10.9 mm
06:45 PM 35.2°F1.8°C 24.6°F-4.1°C 65% 1.3 mph NW2.1 kmh NW 2.1 mph3.4 kmh 29.56 in1001.0 mb 0.00 in0.0 mm 0.00 in0.0 mm 0.43 in10.9 mm
07:00 PM 35.1°F1.7°C 24.8°F-4.0°C 66% 3.2 mph NW5.1 kmh NW 5.4 mph8.7 kmh 29.56 in1001.0 mb 0.00 in0.0 mm 0.00 in0.0 mm 0.43 in10.9 mm
07:15 PM 35.1°F1.7°C 25.2°F-3.8°C 67% 1.2 mph NW1.9 kmh NW 5.0 mph8.0 kmh 29.59 in1002.0 mb 0.00 in0.0 mm 0.00 in0.0 mm 0.43 in10.9 mm
07:30 PM 34.9°F1.6°C 25.4°F-3.7°C 68% Calm Calm -- 29.59 in1002.0 mb 0.00 in0.0 mm 0.00 in0.0 mm 0.43 in10.9 mm
07:45 PM 34.9°F1.6°C 25.7°F-3.5°C 69% Calm Calm -- 29.59 in1002.0 mb 0.00 in0.0 mm 0.00 in0.0 mm 0.43 in10.9 mm
08:00 PM 34.9°F1.6°C 26.4°F-3.1°C 71% 7.6 mph NNW12.2 kmh NNW 9.3 mph15.0 kmh 29.62 in1003.0 mb 0.00 in0.0 mm 0.00 in0.0 mm 0.43 in10.9 mm
08:15 PM 34.7°F1.5°C 26.6°F-3.0°C 72% 7.7 mph NNW12.4 kmh NNW 10.4 mph16.7 kmh 29.62 in1003.0 mb 0.00 in0.0 mm 0.00 in0.0 mm 0.43 in10.9 mm
08:30 PM 34.5°F1.4°C 27.1°F-2.7°C 74% 8.4 mph N13.5 kmh N 10.4 mph16.7 kmh 29.65 in1004.1 mb 0.00 in0.0 mm 0.00 in0.0 mm 0.43 in10.9 mm
08:45 PM 34.5°F1.4°C 27.1°F-2.7°C 74% 9.5 mph N15.3 kmh N 12.9 mph20.8 kmh 29.59 in1002.0 mb 0.00 in0.0 mm 0.00 in0.0 mm 0.43 in10.9 mm
09:00 PM 34.5°F1.4°C 27.4°F-2.6°C 75% 9.5 mph N15.3 kmh N 14.0 mph22.5 kmh 29.59 in1002.0 mb 0.00 in0.0 mm 0.00 in0.0 mm 0.43 in10.9 mm
09:15 PM 34.3°F1.3°C 27.6°F-2.4°C 76% 9.6 mph N15.4 kmh N 14.0 mph22.5 kmh 29.62 in1003.0 mb 0.00 in0.0 mm 0.00 in0.0 mm 0.43 in10.9 mm
09:30 PM 34.3°F1.3°C 27.6°F-2.4°C 76% 8.4 mph N13.5 kmh N 10.4 mph16.7 kmh 29.62 in1003.0 mb 0.00 in0.0 mm 0.00 in0.0 mm 0.43 in10.9 mm
09:45 PM 34.3°F1.3°C 27.6°F-2.4°C 76% 8.4 mph N13.5 kmh N 10.4 mph16.7 kmh 29.62 in1003.0 mb 0.00 in0.0 mm 0.00 in0.0 mm 0.43 in10.9 mm
10:00 PM 34.2°F1.2°C 27.4°F-2.6°C 76% 7.6 mph NW12.2 kmh NW 9.3 mph15.0 kmh 29.62 in1003.0 mb 0.00 in0.0 mm 0.00 in0.0 mm 0.43 in10.9 mm
10:15 PM 34.2°F1.2°C 27.7°F-2.4°C 77% 6.1 mph NW9.8 kmh NW 9.3 mph15.0 kmh 29.65 in1004.1 mb 0.00 in0.0 mm 0.00 in0.0 mm 0.43 in10.9 mm
10:30 PM 34.2°F1.2°C 27.7°F-2.4°C 77% 4.6 mph N7.4 kmh N 5.7 mph9.2 kmh 29.65 in1004.1 mb 0.00 in0.0 mm 0.00 in0.0 mm 0.43 in10.9 mm
10:45 PM 34.2°F1.2°C 27.7°F-2.4°C 77% 7.3 mph N11.7 kmh N 10.0 mph16.1 kmh 29.65 in1004.1 mb 0.00 in0.0 mm 0.00 in0.0 mm 0.43 in10.9 mm
11:00 PM 34.2°F1.2°C 27.7°F-2.4°C 77% 5.2 mph N8.4 kmh N 7.9 mph12.7 kmh 29.68 in1005.1 mb 0.00 in0.0 mm 0.00 in0.0 mm 0.34 in8.6 mm
11:15 PM 34.0°F1.1°C 27.5°F-2.5°C 77% 3.8 mph NW6.1 kmh NW 4.7 mph7.6 kmh 29.68 in1005.1 mb 0.00 in0.0 mm 0.00 in0.0 mm 0.34 in8.6 mm
11:30 PM 34.0°F1.1°C 27.8°F-2.3°C 78% 3.8 mph NW6.1 kmh NW 4.7 mph7.6 kmh 29.68 in1005.1 mb 0.00 in0.0 mm 0.00 in0.0 mm 0.34 in8.6 mm
11:45 PM 34.0°F1.1°C 27.8°F-2.3°C 78% 6.9 mph N11.1 kmh N 9.3 mph15.0 kmh 29.68 in1005.1 mb 0.00 in0.0 mm 0.00 in0.0 mm 0.34 in8.6 mm